createdAt,value
2022-10-26T00:01:28.263Z,9.18
2022-10-26T00:03:57.943Z,9.24
2022-10-26T00:06:29.098Z,9.17
2022-10-26T00:08:59.689Z,9.21
2022-10-26T00:11:28.516Z,9.23
2022-10-26T00:13:57.012Z,9.20
2022-10-26T00:16:29.304Z,9.17
2022-10-26T00:18:58.007Z,9.17
2022-10-26T00:21:26.557Z,9.19
2022-10-26T00:23:55.177Z,9.19
2022-10-26T00:26:25.175Z,9.16
2022-10-26T00:28:55.561Z,9.13
2022-10-26T00:31:24.414Z,9.12
2022-10-26T00:33:54.488Z,9.10
2022-10-26T00:36:23.494Z,9.07
2022-10-26T00:38:52.738Z,9.03
2022-10-26T00:41:23.523Z,9.06
2022-10-26T00:43:54.482Z,9.04
2022-10-26T00:46:26.201Z,9.06
2022-10-26T00:48:58.205Z,9.11
2022-10-26T00:51:33.063Z,9.05
2022-10-26T00:54:04.487Z,9.09
2022-10-26T00:56:35.804Z,9.09
2022-10-26T00:59:11.450Z,9.16
2022-10-26T01:01:42.810Z,9.17
2022-10-26T01:04:11.856Z,9.09
2022-10-26T01:06:41.704Z,8.99
2022-10-26T01:09:11.671Z,9.03
2022-10-26T01:11:40.496Z,9.03
2022-10-26T01:14:12.531Z,8.95
2022-10-26T01:20:08.330Z,8.81
2022-10-26T01:22:40.741Z,8.81
2022-10-26T01:25:27.647Z,8.81
2022-10-26T01:27:56.387Z,8.82
2022-10-26T01:30:30.982Z,8.81
2022-10-26T01:33:11.946Z,8.85
2022-10-26T01:35:50.648Z,8.86
2022-10-26T01:38:27.121Z,8.85
2022-10-26T01:41:02.109Z,8.86
2022-10-26T01:43:36.809Z,8.87
2022-10-26T01:46:09.454Z,8.84
2022-10-26T01:48:39.529Z,8.86
2022-10-26T01:51:10.705Z,8.87
2022-10-26T01:53:46.198Z,8.85
2022-10-26T01:56:20.191Z,8.85
2022-10-26T01:59:23.551Z,8.87
2022-10-26T02:02:19.851Z,8.85
2022-10-26T02:05:02.895Z,8.86
2022-10-26T02:07:38.729Z,8.86
2022-10-26T02:10:18.749Z,8.87
2022-10-26T02:12:56.746Z,8.88
2022-10-26T02:15:30.909Z,8.88
2022-10-26T02:18:04.948Z,8.89
2022-10-26T02:20:37.505Z,8.90
2022-10-26T02:23:08.802Z,8.89
2022-10-26T02:25:41.886Z,8.90
2022-10-26T02:28:14.569Z,8.89
2022-10-26T02:30:45.232Z,8.90
2022-10-26T02:33:16.694Z,8.89
2022-10-26T02:35:51.573Z,8.92
2022-10-26T02:38:21.427Z,8.90
2022-10-26T02:40:52.932Z,8.91
2022-10-26T02:43:23.467Z,8.92
2022-10-26T02:45:55.964Z,8.91
2022-10-26T02:48:26.118Z,8.91
2022-10-26T02:51:02.503Z,8.92
2022-10-26T02:53:34.502Z,8.91
2022-10-26T02:56:07.958Z,8.93
2022-10-26T02:58:42.495Z,8.93
2022-10-26T03:01:11.551Z,8.94
2022-10-26T03:03:41.877Z,8.95
2022-10-26T03:06:10.740Z,8.94
2022-10-26T03:08:39.618Z,8.95
2022-10-26T03:11:08.381Z,8.93
2022-10-26T03:13:37.400Z,8.92
2022-10-26T03:16:06.807Z,8.93
2022-10-26T03:18:35.746Z,8.93
2022-10-26T03:21:06.245Z,8.93
2022-10-26T03:23:37.189Z,8.91
2022-10-26T03:26:06.702Z,8.96
2022-10-26T03:28:35.302Z,8.95
2022-10-26T03:31:04.742Z,8.96
2022-10-26T03:33:33.535Z,8.95
2022-10-26T03:36:02.450Z,8.94
2022-10-26T03:38:32.924Z,8.97
2022-10-26T03:41:02.047Z,8.98
2022-10-26T03:43:30.942Z,8.96
2022-10-26T03:45:59.805Z,8.97
2022-10-26T03:48:31.844Z,8.96
2022-10-26T03:51:01.026Z,8.96
2022-10-26T03:53:33.811Z,8.98
2022-10-26T03:56:02.664Z,8.97
2022-10-26T03:58:31.300Z,8.99
2022-10-26T04:01:02.245Z,9.00
2022-10-26T04:03:31.201Z,9.02
2022-10-26T04:06:02.585Z,8.99
2022-10-26T04:08:32.947Z,8.99
2022-10-26T04:11:03.910Z,9.02
2022-10-26T04:13:33.560Z,9.02
2022-10-26T04:16:02.226Z,9.03
2022-10-26T04:18:31.029Z,9.03
2022-10-26T04:21:03.428Z,9.02
2022-10-26T04:23:33.848Z,9.01
2022-10-26T04:26:02.537Z,9.01
2022-10-26T04:28:31.544Z,9.02
2022-10-26T04:31:00.282Z,9.02
2022-10-26T04:33:29.077Z,9.04
2022-10-26T04:36:01.346Z,9.02
2022-10-26T04:38:30.044Z,9.03
2022-10-26T04:41:00.206Z,9.03
2022-10-26T04:43:28.845Z,9.05
2022-10-26T04:45:57.849Z,9.03
2022-10-26T04:48:27.280Z,9.05
2022-10-26T04:50:55.973Z,9.06
2022-10-26T04:53:24.669Z,9.06
2022-10-26T04:55:59.983Z,9.06
2022-10-26T04:58:28.813Z,9.05
2022-10-26T05:00:57.821Z,9.06
2022-10-26T05:03:28.300Z,9.07
2022-10-26T05:06:00.559Z,9.09
2022-10-26T05:08:30.926Z,9.07
2022-10-26T05:11:01.106Z,9.07
2022-10-26T05:13:29.710Z,9.07
2022-10-26T05:15:58.415Z,9.07
2022-10-26T05:18:27.762Z,9.10
2022-10-26T05:20:56.797Z,9.09
2022-10-26T05:23:25.778Z,9.10
2022-10-26T05:25:56.472Z,9.10
2022-10-26T05:28:26.654Z,9.11
2022-10-26T05:30:55.307Z,9.11
2022-10-26T05:33:24.042Z,9.11
2022-10-26T05:35:56.006Z,9.12
2022-10-26T05:38:24.658Z,9.12
2022-10-26T05:40:54.462Z,9.14
2022-10-26T05:43:25.799Z,9.14
2022-10-26T05:45:55.082Z,9.14
2022-10-26T05:48:24.170Z,9.15
2022-10-26T05:50:53.258Z,9.16
2022-10-26T05:53:21.959Z,9.19
2022-10-26T05:55:51.260Z,9.21
2022-10-26T05:58:21.299Z,9.24
2022-10-26T06:01:08.717Z,9.23
2022-10-26T06:03:54.758Z,9.24
2022-10-26T06:06:25.940Z,9.26
2022-10-26T06:08:56.060Z,9.28
2022-10-26T06:11:26.718Z,9.32
2022-10-26T06:14:00.481Z,9.31
2022-10-26T06:16:39.799Z,9.36
2022-10-26T06:19:21.381Z,9.35
2022-10-26T06:22:02.773Z,9.40
2022-10-26T06:24:40.779Z,9.39
2022-10-26T06:27:20.977Z,9.37
2022-10-26T06:29:57.908Z,9.39
2022-10-26T06:32:28.726Z,9.39
2022-10-26T06:35:07.147Z,9.40
2022-10-26T06:37:38.821Z,9.39
2022-10-26T06:40:08.846Z,9.41
2022-10-26T06:42:38.105Z,9.39
2022-10-26T06:45:08.249Z,9.41
2022-10-26T06:47:43.356Z,9.44
2022-10-26T06:50:27.366Z,9.44
2022-10-26T06:53:04.023Z,9.42
2022-10-26T06:55:40.944Z,9.41
2022-10-26T06:58:11.952Z,9.45
2022-10-26T07:00:41.022Z,9.47
2022-10-26T07:03:11.182Z,9.50
2022-10-26T07:05:40.031Z,9.53
2022-10-26T07:08:08.726Z,9.54
2022-10-26T07:10:39.264Z,9.56
2022-10-26T07:13:08.017Z,9.60
2022-10-26T07:15:37.662Z,9.62
2022-10-26T07:18:07.926Z,9.64
2022-10-26T07:20:40.603Z,9.68
2022-10-26T07:23:11.276Z,9.71
2022-10-26T07:25:40.714Z,9.73
2022-10-26T07:28:11.417Z,9.71
2022-10-26T07:30:41.290Z,9.70
2022-10-26T07:33:12.256Z,9.75
2022-10-26T07:35:42.279Z,9.79
2022-10-26T07:38:11.332Z,9.82
2022-10-26T07:40:40.142Z,9.84
2022-10-26T07:43:08.981Z,9.87
2022-10-26T07:45:37.628Z,9.87
2022-10-26T07:48:06.617Z,9.92
2022-10-26T07:50:35.414Z,9.98
2022-10-26T07:53:05.754Z,10.03
2022-10-26T07:55:34.420Z,10.06
2022-10-26T07:58:03.186Z,10.10
2022-10-26T08:00:32.056Z,10.09
2022-10-26T08:03:00.691Z,10.07
2022-10-26T08:05:29.493Z,10.09
2022-10-26T08:07:58.299Z,10.07
2022-10-26T08:10:28.433Z,10.08
2022-10-26T08:12:57.351Z,10.12
2022-10-26T08:15:25.953Z,10.13
2022-10-26T08:17:54.651Z,10.10
2022-10-26T08:20:23.483Z,10.07
2022-10-26T08:22:53.134Z,10.01
2022-10-26T08:25:21.776Z,10.02
2022-10-26T08:27:52.144Z,10.07
2022-10-26T08:30:20.973Z,10.12
2022-10-26T08:32:50.078Z,10.13
2022-10-26T08:35:19.190Z,10.13
2022-10-26T08:37:47.868Z,10.18
2022-10-26T08:40:18.178Z,10.18
2022-10-26T08:42:52.440Z,10.25
2022-10-26T08:45:32.980Z,10.25
2022-10-26T08:48:08.921Z,10.31
2022-10-26T08:50:43.092Z,10.30
2022-10-26T08:53:21.063Z,10.33
2022-10-26T08:55:53.103Z,10.32
2022-10-26T08:58:25.379Z,10.32
2022-10-26T09:00:56.187Z,10.33
2022-10-26T09:03:26.413Z,10.28
2022-10-26T09:06:09.324Z,10.29
2022-10-26T09:08:47.568Z,10.35
2022-10-26T09:11:30.574Z,10.35
2022-10-26T09:14:11.485Z,10.41
2022-10-26T09:16:50.784Z,10.47
2022-10-26T09:19:33.565Z,10.52
2022-10-26T09:22:08.954Z,10.48
2022-10-26T09:24:44.062Z,10.48
2022-10-26T09:27:21.682Z,10.51
2022-10-26T09:29:52.781Z,10.54
2022-10-26T09:32:23.340Z,10.58
2022-10-26T09:34:54.403Z,10.61
2022-10-26T09:37:24.838Z,10.64
2022-10-26T09:40:02.384Z,10.66
2022-10-26T09:42:38.813Z,10.72
2022-10-26T09:45:15.401Z,10.76
2022-10-26T09:47:52.990Z,10.79
2022-10-26T09:50:27.083Z,10.83
2022-10-26T09:52:55.761Z,10.81
2022-10-26T09:55:24.585Z,10.83
2022-10-26T09:57:56.024Z,10.85
2022-10-26T10:00:29.935Z,10.83
2022-10-26T10:03:00.509Z,10.83
2022-10-26T10:05:50.185Z,10.82
2022-10-26T10:08:22.511Z,10.83
2022-10-26T10:10:59.587Z,10.81
2022-10-26T10:13:30.521Z,10.75
2022-10-26T10:16:02.048Z,10.70
2022-10-26T10:18:33.170Z,10.69
2022-10-26T10:21:02.179Z,10.67
2022-10-26T10:23:33.266Z,10.62
2022-10-26T10:26:11.203Z,10.59
2022-10-26T10:28:41.381Z,10.61
2022-10-26T10:31:22.004Z,10.58
2022-10-26T10:33:53.298Z,10.61
2022-10-26T10:36:23.798Z,10.63
2022-10-26T10:38:54.240Z,10.64
2022-10-26T10:41:29.962Z,10.66
2022-10-26T10:44:09.238Z,10.63
2022-10-26T10:46:39.282Z,10.59
2022-10-26T10:49:22.879Z,10.59
2022-10-26T10:51:52.123Z,10.62
2022-10-26T10:54:26.428Z,10.65
2022-10-26T10:56:59.520Z,10.63
2022-10-26T10:59:52.444Z,10.63
2022-10-26T11:03:02.446Z,10.68
2022-10-26T11:05:50.259Z,10.69
2022-10-26T11:08:22.914Z,10.70
2022-10-26T11:10:59.645Z,10.69
2022-10-26T11:13:33.300Z,10.65
2022-10-26T11:16:05.982Z,10.67
2022-10-26T11:18:39.105Z,10.66
2022-10-26T11:21:20.582Z,10.64
2022-10-26T11:23:53.306Z,10.64
2022-10-26T11:26:28.984Z,10.57
2022-10-26T11:29:02.947Z,10.51
2022-10-26T11:31:39.384Z,10.44
2022-10-26T11:34:18.860Z,10.40
2022-10-26T11:36:55.186Z,10.39
2022-10-26T11:39:31.693Z,10.39
2022-10-26T11:42:05.786Z,10.37
2022-10-26T11:44:41.600Z,10.37
2022-10-26T11:47:16.623Z,10.35
2022-10-26T11:49:50.822Z,10.33
2022-10-26T11:52:26.862Z,10.30
2022-10-26T11:54:57.622Z,10.28
2022-10-26T11:57:28.303Z,10.26
2022-10-26T12:00:02.647Z,10.27
2022-10-26T12:02:38.432Z,10.23
2022-10-26T12:05:18.045Z,10.22
2022-10-26T12:07:51.901Z,10.20
2022-10-26T12:10:28.430Z,10.17
2022-10-26T12:13:06.483Z,10.15
2022-10-26T12:16:02.358Z,10.17
2022-10-26T12:18:56.541Z,10.22
2022-10-26T12:21:29.867Z,10.29
2022-10-26T12:24:01.840Z,10.28
2022-10-26T12:26:41.360Z,10.22
2022-10-26T12:29:38.367Z,10.20
2022-10-26T12:32:56.366Z,10.20
2022-10-26T12:35:34.689Z,10.22
2022-10-26T12:38:24.607Z,10.21
2022-10-26T12:41:15.678Z,10.13
2022-10-26T12:46:45.657Z,10.10
2022-10-26T12:49:58.908Z,10.08
2022-10-26T12:52:44.907Z,10.04
2022-10-26T12:55:44.083Z,10.02
2022-10-26T12:58:39.923Z,9.98
2022-10-26T13:01:37.777Z,9.94
2022-10-26T13:04:19.662Z,9.93
2022-10-26T13:07:14.703Z,9.91
2022-10-26T13:09:47.741Z,9.91
2022-10-26T13:12:16.754Z,9.88
2022-10-26T13:14:59.041Z,9.88
2022-10-26T13:17:29.674Z,9.90
2022-10-26T13:20:00.684Z,9.89
2022-10-26T13:22:30.279Z,9.90
2022-10-26T13:25:02.020Z,9.89
2022-10-26T13:27:45.261Z,9.84
2022-10-26T13:30:44.974Z,9.79
2022-10-26T13:33:35.074Z,9.76
2022-10-26T13:36:08.049Z,9.76
2022-10-26T13:38:39.563Z,9.73
2022-10-26T13:41:19.661Z,9.75
2022-10-26T13:43:49.123Z,9.73
2022-10-26T13:46:28.009Z,9.72
2022-10-26T13:49:06.199Z,9.67
2022-10-26T13:51:42.724Z,9.67
2022-10-26T13:54:22.248Z,9.71
2022-10-26T13:57:03.865Z,9.72
2022-10-26T13:59:34.552Z,9.75
2022-10-26T14:02:19.930Z,9.73
2022-10-26T14:04:49.621Z,9.72
2022-10-26T14:07:24.085Z,9.71
2022-10-26T14:09:55.222Z,9.73
2022-10-26T14:12:25.180Z,9.71
2022-10-26T14:14:55.170Z,9.71
2022-10-26T14:17:27.481Z,9.68
2022-10-26T14:19:56.582Z,9.67
2022-10-26T14:22:28.166Z,9.65
2022-10-26T14:24:58.659Z,9.62
2022-10-26T14:27:29.709Z,9.61
2022-10-26T14:30:21.187Z,9.60
2022-10-26T14:32:48.603Z,9.58
2022-10-26T14:35:18.242Z,9.57
2022-10-26T14:37:53.865Z,9.55
2022-10-26T14:40:26.503Z,9.51
2022-10-26T14:42:58.024Z,9.47
2022-10-26T14:45:49.139Z,9.44
2022-10-26T14:48:26.844Z,9.41
2022-10-26T14:51:13.050Z,9.40
2022-10-26T14:53:49.103Z,9.38
2022-10-26T14:56:28.854Z,9.36
2022-10-26T14:58:59.122Z,9.30
2022-10-26T15:01:36.907Z,9.28
2022-10-26T15:04:08.727Z,9.24
2022-10-26T15:06:43.579Z,9.22
2022-10-26T15:09:34.463Z,9.23
2022-10-26T15:12:06.099Z,9.19
2022-10-26T15:15:06.621Z,9.18
2022-10-26T15:17:42.639Z,9.17
2022-10-26T15:20:20.399Z,9.15
2022-10-26T15:22:56.722Z,9.14
2022-10-26T15:25:28.062Z,9.13
2022-10-26T15:28:12.004Z,9.11
2022-10-26T15:30:41.159Z,9.11
2022-10-26T15:33:22.461Z,9.11
2022-10-26T15:36:19.820Z,9.07
2022-10-26T15:38:50.459Z,9.06
2022-10-26T15:41:24.059Z,9.04
2022-10-26T15:43:54.182Z,9.01
2022-10-26T15:46:23.920Z,9.01
2022-10-26T15:48:58.669Z,8.99
2022-10-26T15:51:30.937Z,9.01
2022-10-26T15:54:00.519Z,8.99
2022-10-26T15:56:29.213Z,8.98
2022-10-26T15:58:59.907Z,8.98
2022-10-26T16:01:30.507Z,8.96
2022-10-26T16:03:59.192Z,8.95
2022-10-26T16:06:33.170Z,8.95
2022-10-26T16:09:04.404Z,8.95
2022-10-26T16:11:33.187Z,8.91
2022-10-26T16:14:03.750Z,8.90
2022-10-26T16:16:32.462Z,8.89
2022-10-26T16:19:25.344Z,8.89
2022-10-26T16:21:53.637Z,8.87
2022-10-26T16:24:22.323Z,8.86
2022-10-26T16:26:50.921Z,8.85
2022-10-26T16:29:19.673Z,8.87
2022-10-26T16:31:48.571Z,8.86
2022-10-26T16:34:17.313Z,8.86
2022-10-26T16:36:45.851Z,8.86
2022-10-26T16:39:15.951Z,8.85
2022-10-26T16:41:44.789Z,8.83
2022-10-26T16:44:13.868Z,8.83
2022-10-26T16:46:42.509Z,8.82
2022-10-26T16:49:11.410Z,8.82
2022-10-26T16:51:40.109Z,8.82
2022-10-26T16:54:08.633Z,8.83
2022-10-26T16:56:38.693Z,8.83
2022-10-26T16:59:07.339Z,8.83
2022-10-26T17:01:36.189Z,8.82
2022-10-26T17:04:05.115Z,8.82
2022-10-26T17:06:33.710Z,8.81
2022-10-26T17:09:02.309Z,8.81
2022-10-26T17:11:31.532Z,8.78
2022-10-26T17:14:02.063Z,8.76
2022-10-26T17:16:30.888Z,8.76
2022-10-26T17:18:59.524Z,8.76
2022-10-26T17:21:32.806Z,8.76
2022-10-26T17:24:01.847Z,8.74
2022-10-26T17:26:30.902Z,8.75
2022-10-26T17:28:59.753Z,8.74
2022-10-26T17:31:29.985Z,8.73
2022-10-26T17:33:59.366Z,8.71
2022-10-26T17:36:28.527Z,8.70
2022-10-26T17:38:57.787Z,8.70
2022-10-26T17:41:26.685Z,8.69
2022-10-26T17:43:55.725Z,8.69
2022-10-26T17:46:26.542Z,8.67
2022-10-26T17:48:58.207Z,8.68
2022-10-26T17:51:29.247Z,8.67
2022-10-26T17:54:00.341Z,8.70
2022-10-26T17:56:32.308Z,8.69
2022-10-26T17:59:05.446Z,8.68
2022-10-26T18:01:35.168Z,8.67
2022-10-26T18:04:05.533Z,8.68
2022-10-26T18:06:36.229Z,8.67
2022-10-26T18:09:04.906Z,8.66
2022-10-26T18:11:33.777Z,8.66
2022-10-26T18:14:04.847Z,8.65
2022-10-26T18:16:34.663Z,8.65
2022-10-26T18:19:07.660Z,8.63
2022-10-26T18:21:38.756Z,8.62
2022-10-26T18:24:09.079Z,8.62
2022-10-26T18:26:37.919Z,8.60
2022-10-26T18:29:07.322Z,8.59
2022-10-26T18:31:36.204Z,8.59
2022-10-26T18:34:07.622Z,8.58
2022-10-26T18:39:06.414Z,8.58
2022-10-26T18:41:35.856Z,8.57
2022-10-26T18:44:04.913Z,8.57
2022-10-26T18:46:39.928Z,8.58
2022-10-26T18:49:11.246Z,8.56
2022-10-26T18:51:40.059Z,8.57
2022-10-26T18:54:08.767Z,8.58
2022-10-26T18:56:37.403Z,8.58
2022-10-26T18:59:06.044Z,8.56
2022-10-26T19:01:36.441Z,8.55
2022-10-26T19:04:07.014Z,8.55
2022-10-26T19:06:41.264Z,8.53
2022-10-26T19:09:10.544Z,8.53
2022-10-26T19:11:39.846Z,8.53
2022-10-26T19:14:09.183Z,8.54
2022-10-26T19:16:47.493Z,8.54
2022-10-26T19:19:17.453Z,8.54
2022-10-26T19:21:51.525Z,8.52
2022-10-26T19:24:21.413Z,8.54
2022-10-26T19:26:50.926Z,8.53
2022-10-26T19:29:20.685Z,8.51
2022-10-26T19:31:52.148Z,8.52
2022-10-26T19:34:21.165Z,8.52
2022-10-26T19:36:51.110Z,8.52
2022-10-26T19:39:21.188Z,8.51
2022-10-26T19:41:50.064Z,8.53
2022-10-26T19:44:22.005Z,8.51
2022-10-26T19:46:54.247Z,8.51
2022-10-26T19:49:23.060Z,8.53
2022-10-26T19:51:53.166Z,8.50
2022-10-26T19:54:21.823Z,8.52
2022-10-26T19:56:50.618Z,8.49
2022-10-26T19:59:19.266Z,8.47
2022-10-26T20:01:52.073Z,8.47
2022-10-26T20:04:21.352Z,8.47
2022-10-26T20:06:50.066Z,8.47
2022-10-26T20:09:20.309Z,8.46
2022-10-26T20:11:49.987Z,8.46
2022-10-26T20:14:18.543Z,8.44
2022-10-26T20:16:47.163Z,8.44
2022-10-26T20:19:15.907Z,8.43
2022-10-26T20:21:44.543Z,8.43
2022-10-26T20:24:13.345Z,8.41
2022-10-26T20:26:44.085Z,8.38
2022-10-26T20:29:13.623Z,8.39
2022-10-26T20:31:42.331Z,8.39
2022-10-26T20:34:11.090Z,8.39
2022-10-26T20:36:40.386Z,8.38
2022-10-26T20:39:10.090Z,8.38
2022-10-26T20:41:44.883Z,8.38
2022-10-26T20:44:19.846Z,8.37
2022-10-26T20:46:50.503Z,8.37
2022-10-26T20:49:19.759Z,8.37
2022-10-26T20:52:20.186Z,8.37
2022-10-26T20:54:49.338Z,8.36
2022-10-26T20:57:23.940Z,8.36
2022-10-26T20:59:56.979Z,8.37
2022-10-26T21:02:27.983Z,8.38
2022-10-26T21:04:56.618Z,8.35
2022-10-26T21:07:25.127Z,8.35
2022-10-26T21:09:54.866Z,8.32
2022-10-26T21:12:25.386Z,8.33
2022-10-26T21:14:53.973Z,8.32
2022-10-26T21:17:22.781Z,8.31
2022-10-26T21:19:51.487Z,8.31
2022-10-26T21:22:20.127Z,8.30
2022-10-26T21:24:49.200Z,8.29
2022-10-26T21:27:17.806Z,8.29
2022-10-26T21:29:48.000Z,8.28
2022-10-26T21:32:16.680Z,8.26
2022-10-26T21:34:45.329Z,8.25
2022-10-26T21:37:14.859Z,8.24
2022-10-26T21:39:43.581Z,8.25
2022-10-26T21:42:12.246Z,8.26
2022-10-26T21:44:41.786Z,8.26
2022-10-26T21:47:12.885Z,8.24
2022-10-26T21:52:15.881Z,8.23
2022-10-26T21:54:44.702Z,8.23
2022-10-26T21:57:13.600Z,8.22
2022-10-26T21:59:42.852Z,8.22
2022-10-26T22:02:13.319Z,8.21
2022-10-26T22:04:42.120Z,8.21
2022-10-26T22:07:10.824Z,8.21
2022-10-26T22:09:49.387Z,8.22
2022-10-26T22:12:28.033Z,8.21
2022-10-26T22:14:56.566Z,8.24
2022-10-26T22:17:26.636Z,8.19
2022-10-26T22:19:55.409Z,8.19
2022-10-26T22:22:24.057Z,8.18
2022-10-26T22:24:52.646Z,8.19
2022-10-26T22:27:21.200Z,8.19
2022-10-26T22:29:49.823Z,8.18
2022-10-26T22:32:18.520Z,8.17
2022-10-26T22:34:50.618Z,8.17
2022-10-26T22:37:19.407Z,8.18
2022-10-26T22:42:16.556Z,8.19
2022-10-26T22:44:45.166Z,8.17
2022-10-26T22:47:13.822Z,8.19
2022-10-26T22:49:42.403Z,8.17
2022-10-26T22:52:12.497Z,8.16
2022-10-26T22:54:41.073Z,8.16
2022-10-26T22:57:09.737Z,8.16
2022-10-26T22:59:38.423Z,8.15
2022-10-26T23:02:07.240Z,8.15
2022-10-26T23:04:35.901Z,8.13
2022-10-26T23:07:05.118Z,8.11
2022-10-26T23:09:35.171Z,8.12
2022-10-26T23:12:03.781Z,8.10
2022-10-26T23:14:32.435Z,8.10
2022-10-26T23:17:01.535Z,8.10
2022-10-26T23:19:30.017Z,8.09
2022-10-26T23:21:58.681Z,8.09
2022-10-26T23:24:27.317Z,8.08
2022-10-26T23:26:57.413Z,8.08
2022-10-26T23:29:38.230Z,8.09
2022-10-26T23:32:07.170Z,8.09
2022-10-26T23:34:35.793Z,8.09
2022-10-26T23:37:04.439Z,8.08
2022-10-26T23:39:32.985Z,8.06
2022-10-26T23:42:03.089Z,8.07
2022-10-26T23:44:31.776Z,8.07
2022-10-26T23:47:00.419Z,8.07
2022-10-26T23:49:28.948Z,8.08
2022-10-26T23:51:57.591Z,8.07
2022-10-26T23:54:26.047Z,8.06
2022-10-26T23:56:54.720Z,8.05
2022-10-26T23:59:25.468Z,8.04
